Estación Meteorológica Peña el Pijo (Robertgarden) [ 07/23/19 12:44:49 CEST ]

Fecha Hora Presion(HPa) Temp (°C) Humedad % Rocio (°C) Viento ( m/s) Direccion Lluvia 1Hora(mm) Lluvia 24H(mm) LLuvia Total(mm)
2019-May-03 01:01:51 1005.000 11.8 73 7.1         315.46
2019-May-03 02:01:41 1004.900 12.1 78 8.4         315.46
2019-May-03 03:02:13 1004.400 12.1 81 9.0         315.46
2019-May-03 04:02:24 1003.800 13.1 83 10.2         315.46
2019-May-03 05:02:14 1003.100 13.4 85 10.9         315.46
2019-May-03 06:02:12 1002.900 13.2 85 10.7         315.46
2019-May-03 07:01:48 1002.600 13.8 87 11.7         315.46
2019-May-03 08:01:51 1002.600 11.6 87 9.5         315.46
2019-May-03 09:01:32 1002.200 11.6 83 8.8         315.46
2019-May-03 10:01:53 1001.800 16.1 55 7.0         315.46
2019-May-03 11:01:50 1001.200 20.8 47 9.0         315.46
2019-May-03 12:01:41 1000.800 23.9 42 10.2         315.46
2019-May-03 13:01:41 1000.400 23.0 37 7.4         315.46
2019-May-03 14:01:48 1000.000 24.5 38 9.2         315.46
2019-May-03 15:01:52 999.500 22.1 40 7.9         315.46
2019-May-03 16:01:48 999.200 23.6 38 8.4 1.6 NNE     315.46
2019-May-03 17:02:01 999.400 21.0 41 7.2         315.46
2019-May-03 18:01:53 999.400 18.9 48 7.6         315.46
2019-May-03 19:01:47 1000.400 14.3 69 8.7     2.07 2.07 317.53
2019-May-03 20:01:42 1000.500 13.4 77 9.4     0.51 2.59 318.05
2019-May-03 21:02:01 1001.000 13.0 80 9.6       2.59 318.05
2019-May-03 22:01:54 1002.100 13.3 85 10.8       2.59 318.05
2019-May-03 23:01:41 1003.200 12.9 85 10.4       2.59 318.05

Temperatura Máxima:24°    Temperatura Mínima:11°
Presión Máxima:1005.000 Hpa    Presión Mínima:999.200 Hpa


Volver